sensor_id;sensor_type;location;lat;lon;timestamp;P1;durP1;ratioP1;P2;durP2;ratioP2
78555;SDS011;67851;51.354;7.744;2023-05-10T00:02:16;2.22;;;1.70;;
78555;SDS011;67851;51.354;7.744;2023-05-10T00:04:41;2.35;;;1.60;;
78555;SDS011;67851;51.354;7.744;2023-05-10T00:07:07;3.95;;;1.70;;
78555;SDS011;67851;51.354;7.744;2023-05-10T00:09:33;2.15;;;1.73;;
78555;SDS011;67851;51.354;7.744;2023-05-10T00:11:59;1.95;;;1.40;;
78555;SDS011;67851;51.354;7.744;2023-05-10T00:14:25;1.42;;;1.23;;
78555;SDS011;67851;51.354;7.744;2023-05-10T00:16:52;3.55;;;1.50;;
78555;SDS011;67851;51.354;7.744;2023-05-10T00:19:18;2.17;;;1.40;;
78555;SDS011;67851;51.354;7.744;2023-05-10T00:21:43;1.73;;;1.40;;
78555;SDS011;67851;51.354;7.744;2023-05-10T00:24:09;1.45;;;1.17;;
78555;SDS011;67851;51.354;7.744;2023-05-10T00:26:34;2.92;;;1.20;;
78555;SDS011;67851;51.354;7.744;2023-05-10T00:29:00;2.40;;;1.63;;
78555;SDS011;67851;51.354;7.744;2023-05-10T00:31:27;1.77;;;1.38;;
78555;SDS011;67851;51.354;7.744;2023-05-10T00:33:53;1.58;;;1.13;;
78555;SDS011;67851;51.354;7.744;2023-05-10T00:36:18;1.88;;;1.40;;
78555;SDS011;67851;51.354;7.744;2023-05-10T00:38:44;2.55;;;1.30;;
78555;SDS011;67851;51.354;7.744;2023-05-10T00:41:11;1.88;;;1.35;;
78555;SDS011;67851;51.354;7.744;2023-05-10T00:43:39;4.13;;;1.30;;
78555;SDS011;67851;51.354;7.744;2023-05-10T00:46:05;1.98;;;1.33;;
78555;SDS011;67851;51.354;7.744;2023-05-10T00:48:31;4.22;;;1.10;;
78555;SDS011;67851;51.354;7.744;2023-05-10T00:50:57;1.45;;;1.23;;
78555;SDS011;67851;51.354;7.744;2023-05-10T00:53:22;3.25;;;1.05;;
78555;SDS011;67851;51.354;7.744;2023-05-10T00:55:50;1.23;;;1.00;;
78555;SDS011;67851;51.354;7.744;2023-05-10T00:58:16;1.85;;;1.10;;
78555;SDS011;67851;51.354;7.744;2023-05-10T01:00:42;1.70;;;0.90;;
78555;SDS011;67851;51.354;7.744;2023-05-10T01:03:10;2.25;;;1.08;;
78555;SDS011;67851;51.354;7.744;2023-05-10T01:05:36;2.28;;;1.10;;
78555;SDS011;67851;51.354;7.744;2023-05-10T01:08:03;2.05;;;1.35;;
78555;SDS011;67851;51.354;7.744;2023-05-10T01:10:30;1.48;;;1.30;;
78555;SDS011;67851;51.354;7.744;2023-05-10T01:13:01;1.75;;;1.27;;
78555;SDS011;67851;51.354;7.744;2023-05-10T01:15:28;1.40;;;1.10;;
78555;SDS011;67851;51.354;7.744;2023-05-10T01:17:56;1.70;;;1.52;;
78555;SDS011;67851;51.354;7.744;2023-05-10T01:20:22;2.50;;;1.63;;
78555;SDS011;67851;51.354;7.744;2023-05-10T01:34:30;3.42;;;2.17;;
78555;SDS011;67851;51.354;7.744;2023-05-10T01:37:09;3.88;;;2.30;;
78555;SDS011;67851;51.354;7.744;2023-05-10T01:39:49;4.97;;;2.10;;
78555;SDS011;67851;51.354;7.744;2023-05-10T01:42:31;2.92;;;2.13;;
78555;SDS011;67851;51.354;7.744;2023-05-10T01:48:06;5.18;;;3.78;;
78555;SDS011;67851;51.354;7.744;2023-05-10T01:50:36;5.68;;;3.60;;
78555;SDS011;67851;51.354;7.744;2023-05-10T01:53:06;7.05;;;3.58;;
78555;SDS011;67851;51.354;7.744;2023-05-10T01:55:32;8.18;;;4.70;;
78555;SDS011;67851;51.354;7.744;2023-05-10T01:58:10;8.30;;;4.50;;
78555;SDS011;67851;51.354;7.744;2023-05-10T02:00:43;6.80;;;4.25;;
78555;SDS011;67851;51.354;7.744;2023-05-10T02:03:11;8.00;;;5.15;;
78555;SDS011;67851;51.354;7.744;2023-05-10T02:05:37;11.07;;;5.88;;
78555;SDS011;67851;51.354;7.744;2023-05-10T02:08:06;10.05;;;5.28;;
78555;SDS011;67851;51.354;7.744;2023-05-10T02:10:35;9.25;;;5.35;;
78555;SDS011;67851;51.354;7.744;2023-05-10T02:13:03;7.72;;;4.45;;
78555;SDS011;67851;51.354;7.744;2023-05-10T02:15:31;8.88;;;4.75;;
78555;SDS011;67851;51.354;7.744;2023-05-10T02:17:58;9.05;;;4.90;;
78555;SDS011;67851;51.354;7.744;2023-05-10T02:20:24;10.55;;;5.13;;
78555;SDS011;67851;51.354;7.744;2023-05-10T02:22:51;10.88;;;4.75;;
78555;SDS011;67851;51.354;7.744;2023-05-10T02:25:21;10.20;;;5.78;;
78555;SDS011;67851;51.354;7.744;2023-05-10T02:27:48;12.63;;;5.60;;
78555;SDS011;67851;51.354;7.744;2023-05-10T02:30:14;10.70;;;5.70;;
78555;SDS011;67851;51.354;7.744;2023-05-10T02:32:41;12.35;;;5.75;;
78555;SDS011;67851;51.354;7.744;2023-05-10T02:35:08;11.20;;;6.10;;
78555;SDS011;67851;51.354;7.744;2023-05-10T02:37:36;10.73;;;6.47;;
78555;SDS011;67851;51.354;7.744;2023-05-10T02:40:02;8.90;;;5.93;;
78555;SDS011;67851;51.354;7.744;2023-05-10T02:42:32;13.43;;;7.45;;
78555;SDS011;67851;51.354;7.744;2023-05-10T02:45:00;13.27;;;7.85;;
78555;SDS011;67851;51.354;7.744;2023-05-10T02:47:28;11.18;;;6.90;;
78555;SDS011;67851;51.354;7.744;2023-05-10T02:49:55;13.52;;;7.57;;
78555;SDS011;67851;51.354;7.744;2023-05-10T02:52:23;13.85;;;7.88;;
78555;SDS011;67851;51.354;7.744;2023-05-10T02:54:52;13.18;;;8.07;;
78555;SDS011;67851;51.354;7.744;2023-05-10T02:57:24;13.75;;;8.70;;
78555;SDS011;67851;51.354;7.744;2023-05-10T02:59:54;13.07;;;8.32;;
78555;SDS011;67851;51.354;7.744;2023-05-10T03:02:20;13.32;;;8.50;;
78555;SDS011;67851;51.354;7.744;2023-05-10T03:04:45;14.45;;;9.38;;
78555;SDS011;67851;51.354;7.744;2023-05-10T03:07:12;14.95;;;9.60;;
78555;SDS011;67851;51.354;7.744;2023-05-10T03:09:39;18.77;;;9.75;;
78555;SDS011;67851;51.354;7.744;2023-05-10T03:12:07;16.40;;;8.45;;
78555;SDS011;67851;51.354;7.744;2023-05-10T03:20:21;9.00;;;6.32;;
78555;SDS011;67851;51.354;7.744;2023-05-10T03:22:51;11.80;;;6.43;;
78555;SDS011;67851;51.354;7.744;2023-05-10T03:25:20;9.45;;;6.95;;
78555;SDS011;67851;51.354;7.744;2023-05-10T03:27:47;15.23;;;8.50;;
78555;SDS011;67851;51.354;7.744;2023-05-10T03:30:13;11.60;;;7.95;;
78555;SDS011;67851;51.354;7.744;2023-05-10T03:32:43;14.77;;;9.52;;
78555;SDS011;67851;51.354;7.744;2023-05-10T03:35:12;12.35;;;8.63;;
78555;SDS011;67851;51.354;7.744;2023-05-10T03:37:41;14.30;;;8.98;;
78555;SDS011;67851;51.354;7.744;2023-05-10T03:40:06;14.30;;;8.68;;
78555;SDS011;67851;51.354;7.744;2023-05-10T03:42:35;17.55;;;9.90;;
78555;SDS011;67851;51.354;7.744;2023-05-10T03:45:01;21.60;;;12.10;;
78555;SDS011;67851;51.354;7.744;2023-05-10T03:47:27;21.38;;;13.15;;
78555;SDS011;67851;51.354;7.744;2023-05-10T03:49:58;23.38;;;13.45;;
78555;SDS011;67851;51.354;7.744;2023-05-10T03:52:24;20.17;;;12.77;;
78555;SDS011;67851;51.354;7.744;2023-05-10T03:54:49;22.40;;;14.00;;
78555;SDS011;67851;51.354;7.744;2023-05-10T03:57:15;30.67;;;15.50;;
78555;SDS011;67851;51.354;7.744;2023-05-10T03:59:40;30.60;;;16.15;;
78555;SDS011;67851;51.354;7.744;2023-05-10T04:02:06;34.95;;;18.63;;
78555;SDS011;67851;51.354;7.744;2023-05-10T04:04:31;36.05;;;18.25;;
78555;SDS011;67851;51.354;7.744;2023-05-10T04:07:00;38.60;;;20.13;;
78555;SDS011;67851;51.354;7.744;2023-05-10T04:09:26;41.58;;;20.60;;
78555;SDS011;67851;51.354;7.744;2023-05-10T04:11:51;45.63;;;21.33;;
78555;SDS011;67851;51.354;7.744;2023-05-10T04:14:19;41.63;;;21.33;;
78555;SDS011;67851;51.354;7.744;2023-05-10T04:16:46;40.85;;;21.17;;
78555;SDS011;67851;51.354;7.744;2023-05-10T04:19:11;47.95;;;22.63;;
78555;SDS011;67851;51.354;7.744;2023-05-10T04:21:37;43.15;;;21.58;;
78555;SDS011;67851;51.354;7.744;2023-05-10T04:24:07;48.20;;;22.00;;
78555;SDS011;67851;51.354;7.744;2023-05-10T04:26:33;40.28;;;18.98;;
78555;SDS011;67851;51.354;7.744;2023-05-10T04:29:00;42.97;;;19.60;;
78555;SDS011;67851;51.354;7.744;2023-05-10T04:31:26;45.33;;;21.05;;
78555;SDS011;67851;51.354;7.744;2023-05-10T04:33:53;45.88;;;20.35;;
78555;SDS011;67851;51.354;7.744;2023-05-10T04:36:18;32.25;;;14.63;;
78555;SDS011;67851;51.354;7.744;2023-05-10T04:38:44;40.63;;;16.83;;
78555;SDS011;67851;51.354;7.744;2023-05-10T04:41:10;31.10;;;14.80;;
78555;SDS011;67851;51.354;7.744;2023-05-10T04:43:36;23.10;;;11.93;;
78555;SDS011;67851;51.354;7.744;2023-05-10T04:46:03;26.58;;;13.13;;
78555;SDS011;67851;51.354;7.744;2023-05-10T04:48:29;25.98;;;12.50;;
78555;SDS011;67851;51.354;7.744;2023-05-10T04:50:54;23.67;;;11.45;;
78555;SDS011;67851;51.354;7.744;2023-05-10T04:53:22;15.45;;;8.75;;
78555;SDS011;67851;51.354;7.744;2023-05-10T04:55:50;24.58;;;12.32;;
78555;SDS011;67851;51.354;7.744;2023-05-10T04:58:17;33.30;;;12.73;;
78555;SDS011;67851;51.354;7.744;2023-05-10T05:00:44;24.98;;;11.27;;
78555;SDS011;67851;51.354;7.744;2023-05-10T05:03:11;23.83;;;11.27;;
78555;SDS011;67851;51.354;7.744;2023-05-10T05:05:38;15.90;;;8.57;;
78555;SDS011;67851;51.354;7.744;2023-05-10T05:08:03;22.15;;;10.73;;
78555;SDS011;67851;51.354;7.744;2023-05-10T05:10:29;21.58;;;10.32;;
78555;SDS011;67851;51.354;7.744;2023-05-10T05:12:55;21.42;;;11.10;;
78555;SDS011;67851;51.354;7.744;2023-05-10T05:15:22;18.58;;;9.40;;
78555;SDS011;67851;51.354;7.744;2023-05-10T05:17:47;20.70;;;8.35;;
78555;SDS011;67851;51.354;7.744;2023-05-10T05:20:14;18.67;;;8.85;;
78555;SDS011;67851;51.354;7.744;2023-05-10T05:22:40;19.85;;;9.30;;
78555;SDS011;67851;51.354;7.744;2023-05-10T05:25:05;19.38;;;8.18;;
78555;SDS011;67851;51.354;7.744;2023-05-10T05:27:32;20.30;;;9.05;;
78555;SDS011;67851;51.354;7.744;2023-05-10T05:29:59;18.52;;;9.10;;
78555;SDS011;67851;51.354;7.744;2023-05-10T05:32:25;20.67;;;8.82;;
78555;SDS011;67851;51.354;7.744;2023-05-10T05:34:51;18.50;;;8.60;;
78555;SDS011;67851;51.354;7.744;2023-05-10T05:37:18;15.85;;;8.80;;
78555;SDS011;67851;51.354;7.744;2023-05-10T05:39:45;18.00;;;9.70;;
78555;SDS011;67851;51.354;7.744;2023-05-10T05:42:11;18.83;;;9.77;;
78555;SDS011;67851;51.354;7.744;2023-05-10T05:44:37;18.15;;;9.30;;
78555;SDS011;67851;51.354;7.744;2023-05-10T05:47:06;14.98;;;8.45;;
78555;SDS011;67851;51.354;7.744;2023-05-10T05:49:33;19.08;;;9.55;;
78555;SDS011;67851;51.354;7.744;2023-05-10T05:51:59;24.42;;;12.32;;
78555;SDS011;67851;51.354;7.744;2023-05-10T05:54:28;36.53;;;14.07;;
78555;SDS011;67851;51.354;7.744;2023-05-10T05:56:55;28.92;;;14.20;;
78555;SDS011;67851;51.354;7.744;2023-05-10T05:59:21;38.67;;;13.82;;
78555;SDS011;67851;51.354;7.744;2023-05-10T06:01:47;33.58;;;15.80;;
78555;SDS011;67851;51.354;7.744;2023-05-10T06:04:12;40.63;;;19.25;;
78555;SDS011;67851;51.354;7.744;2023-05-10T06:06:38;39.85;;;18.33;;
78555;SDS011;67851;51.354;7.744;2023-05-10T06:09:03;43.83;;;19.45;;
78555;SDS011;67851;51.354;7.744;2023-05-10T06:11:30;53.08;;;22.00;;
78555;SDS011;67851;51.354;7.744;2023-05-10T06:13:59;43.20;;;19.80;;
78555;SDS011;67851;51.354;7.744;2023-05-10T06:16:25;55.33;;;23.25;;
78555;SDS011;67851;51.354;7.744;2023-05-10T06:18:51;45.22;;;21.50;;
78555;SDS011;67851;51.354;7.744;2023-05-10T06:21:18;55.08;;;23.52;;
78555;SDS011;67851;51.354;7.744;2023-05-10T06:23:43;42.60;;;21.65;;
78555;SDS011;67851;51.354;7.744;2023-05-10T06:26:09;48.30;;;21.67;;
78555;SDS011;67851;51.354;7.744;2023-05-10T06:28:35;47.72;;;22.88;;
78555;SDS011;67851;51.354;7.744;2023-05-10T06:31:07;36.65;;;20.48;;
78555;SDS011;67851;51.354;7.744;2023-05-10T06:33:33;50.05;;;22.60;;
78555;SDS011;67851;51.354;7.744;2023-05-10T06:35:59;47.13;;;21.88;;
78555;SDS011;67851;51.354;7.744;2023-05-10T06:38:25;40.17;;;20.60;;
78555;SDS011;67851;51.354;7.744;2023-05-10T06:40:50;36.28;;;20.10;;
78555;SDS011;67851;51.354;7.744;2023-05-10T06:43:16;37.80;;;20.02;;
78555;SDS011;67851;51.354;7.744;2023-05-10T06:45:43;38.15;;;19.98;;
78555;SDS011;67851;51.354;7.744;2023-05-10T06:48:09;36.00;;;19.95;;
78555;SDS011;67851;51.354;7.744;2023-05-10T06:50:34;34.10;;;19.52;;
78555;SDS011;67851;51.354;7.744;2023-05-10T06:53:00;35.70;;;19.35;;
78555;SDS011;67851;51.354;7.744;2023-05-10T06:55:27;41.60;;;21.40;;
78555;SDS011;67851;51.354;7.744;2023-05-10T06:57:52;41.35;;;20.65;;
78555;SDS011;67851;51.354;7.744;2023-05-10T07:00:19;40.90;;;19.75;;
78555;SDS011;67851;51.354;7.744;2023-05-10T07:02:45;42.90;;;21.25;;
78555;SDS011;67851;51.354;7.744;2023-05-10T07:05:12;39.90;;;21.55;;
78555;SDS011;67851;51.354;7.744;2023-05-10T07:07:38;39.40;;;20.70;;
78555;SDS011;67851;51.354;7.744;2023-05-10T07:10:05;34.65;;;20.17;;
78555;SDS011;67851;51.354;7.744;2023-05-10T07:12:31;48.50;;;22.80;;
78555;SDS011;67851;51.354;7.744;2023-05-10T07:14:56;44.08;;;20.05;;
78555;SDS011;67851;51.354;7.744;2023-05-10T07:17:23;40.60;;;21.08;;
78555;SDS011;67851;51.354;7.744;2023-05-10T07:19:49;33.78;;;19.80;;
78555;SDS011;67851;51.354;7.744;2023-05-10T07:22:15;38.53;;;20.50;;
78555;SDS011;67851;51.354;7.744;2023-05-10T07:24:41;42.00;;;20.58;;
78555;SDS011;67851;51.354;7.744;2023-05-10T07:27:07;37.90;;;20.48;;
78555;SDS011;67851;51.354;7.744;2023-05-10T07:29:32;36.35;;;19.85;;
78555;SDS011;67851;51.354;7.744;2023-05-10T07:31:58;34.28;;;19.42;;
78555;SDS011;67851;51.354;7.744;2023-05-10T07:34:24;31.15;;;18.20;;
78555;SDS011;67851;51.354;7.744;2023-05-10T07:36:49;31.58;;;17.90;;
78555;SDS011;67851;51.354;7.744;2023-05-10T07:39:15;26.73;;;16.30;;
78555;SDS011;67851;51.354;7.744;2023-05-10T07:41:42;29.10;;;16.52;;
78555;SDS011;67851;51.354;7.744;2023-05-10T07:44:08;28.35;;;15.55;;
78555;SDS011;67851;51.354;7.744;2023-05-10T07:46:36;30.33;;;14.95;;
78555;SDS011;67851;51.354;7.744;2023-05-10T07:49:05;24.00;;;15.15;;
78555;SDS011;67851;51.354;7.744;2023-05-10T07:51:30;24.38;;;12.95;;
78555;SDS011;67851;51.354;7.744;2023-05-10T07:53:56;27.83;;;14.63;;
78555;SDS011;67851;51.354;7.744;2023-05-10T07:56:27;24.80;;;14.48;;
78555;SDS011;67851;51.354;7.744;2023-05-10T07:58:58;26.33;;;15.18;;
78555;SDS011;67851;51.354;7.744;2023-05-10T08:01:26;28.08;;;15.02;;
78555;SDS011;67851;51.354;7.744;2023-05-10T08:03:52;28.00;;;15.63;;
78555;SDS011;67851;51.354;7.744;2023-05-10T08:06:19;19.70;;;13.23;;
78555;SDS011;67851;51.354;7.744;2023-05-10T08:08:45;20.52;;;13.10;;
78555;SDS011;67851;51.354;7.744;2023-05-10T08:11:15;22.05;;;12.45;;
78555;SDS011;67851;51.354;7.744;2023-05-10T08:13:44;22.20;;;11.55;;
78555;SDS011;67851;51.354;7.744;2023-05-10T08:16:10;20.92;;;11.95;;
78555;SDS011;67851;51.354;7.744;2023-05-10T08:18:36;17.65;;;12.02;;
78555;SDS011;67851;51.354;7.744;2023-05-10T08:21:02;18.83;;;11.52;;
78555;SDS011;67851;51.354;7.744;2023-05-10T08:23:28;16.50;;;11.23;;
78555;SDS011;67851;51.354;7.744;2023-05-10T08:25:55;18.65;;;11.55;;
78555;SDS011;67851;51.354;7.744;2023-05-10T08:28:20;20.25;;;11.85;;
78555;SDS011;67851;51.354;7.744;2023-05-10T08:30:46;20.42;;;11.50;;
78555;SDS011;67851;51.354;7.744;2023-05-10T08:33:11;22.65;;;12.40;;
78555;SDS011;67851;51.354;7.744;2023-05-10T08:35:43;19.13;;;10.80;;
78555;SDS011;67851;51.354;7.744;2023-05-10T08:38:08;19.67;;;11.95;;
78555;SDS011;67851;51.354;7.744;2023-05-10T08:40:34;22.30;;;12.27;;
78555;SDS011;67851;51.354;7.744;2023-05-10T08:43:04;18.70;;;11.60;;
78555;SDS011;67851;51.354;7.744;2023-05-10T08:45:32;24.13;;;12.10;;
78555;SDS011;67851;51.354;7.744;2023-05-10T08:48:05;20.30;;;10.35;;
78555;SDS011;67851;51.354;7.744;2023-05-10T08:50:31;15.68;;;8.90;;
78555;SDS011;67851;51.354;7.744;2023-05-10T08:52:57;18.35;;;9.55;;
78555;SDS011;67851;51.354;7.744;2023-05-10T08:55:26;12.45;;;8.82;;
78555;SDS011;67851;51.354;7.744;2023-05-10T08:57:52;11.23;;;8.13;;
78555;SDS011;67851;51.354;7.744;2023-05-10T09:00:19;13.52;;;7.78;;
78555;SDS011;67851;51.354;7.744;2023-05-10T09:02:45;12.55;;;8.05;;
78555;SDS011;67851;51.354;7.744;2023-05-10T09:05:12;15.25;;;8.52;;
78555;SDS011;67851;51.354;7.744;2023-05-10T09:07:37;13.07;;;6.90;;
78555;SDS011;67851;51.354;7.744;2023-05-10T09:10:04;12.48;;;6.95;;
78555;SDS011;67851;51.354;7.744;2023-05-10T09:12:30;11.50;;;5.70;;
78555;SDS011;67851;51.354;7.744;2023-05-10T09:14:56;11.13;;;6.68;;
78555;SDS011;67851;51.354;7.744;2023-05-10T09:17:23;8.95;;;6.63;;
78555;SDS011;67851;51.354;7.744;2023-05-10T09:19:50;11.32;;;7.38;;
78555;SDS011;67851;51.354;7.744;2023-05-10T09:22:25;10.48;;;6.63;;
78555;SDS011;67851;51.354;7.744;2023-05-10T09:27:45;8.80;;;5.95;;
78555;SDS011;67851;51.354;7.744;2023-05-10T09:30:25;8.90;;;6.68;;
78555;SDS011;67851;51.354;7.744;2023-05-10T09:32:52;10.82;;;6.05;;
78555;SDS011;67851;51.354;7.744;2023-05-10T09:35:20;6.82;;;4.90;;
78555;SDS011;67851;51.354;7.744;2023-05-10T09:37:52;8.40;;;4.93;;
78555;SDS011;67851;51.354;7.744;2023-05-10T09:40:21;7.13;;;4.72;;
78555;SDS011;67851;51.354;7.744;2023-05-10T09:42:52;7.25;;;4.53;;
78555;SDS011;67851;51.354;7.744;2023-05-10T09:45:17;7.10;;;3.90;;
78555;SDS011;67851;51.354;7.744;2023-05-10T09:47:43;5.80;;;4.13;;
78555;SDS011;67851;51.354;7.744;2023-05-10T09:50:10;5.03;;;3.90;;
78555;SDS011;67851;51.354;7.744;2023-05-10T09:52:58;11.25;;;4.70;;
78555;SDS011;67851;51.354;7.744;2023-05-10T09:55:37;7.43;;;5.10;;
78555;SDS011;67851;51.354;7.744;2023-05-10T09:58:04;12.82;;;5.38;;
78555;SDS011;67851;51.354;7.744;2023-05-10T10:00:42;11.85;;;5.15;;
78555;SDS011;67851;51.354;7.744;2023-05-10T10:03:13;8.15;;;5.70;;
78555;SDS011;67851;51.354;7.744;2023-05-10T10:05:40;12.20;;;6.20;;
78555;SDS011;67851;51.354;7.744;2023-05-10T10:08:10;7.95;;;4.97;;
78555;SDS011;67851;51.354;7.744;2023-05-10T10:10:37;7.25;;;5.05;;
78555;SDS011;67851;51.354;7.744;2023-05-10T10:13:13;8.18;;;5.05;;
78555;SDS011;67851;51.354;7.744;2023-05-10T10:15:39;9.77;;;5.30;;
78555;SDS011;67851;51.354;7.744;2023-05-10T10:18:04;8.27;;;5.00;;
78555;SDS011;67851;51.354;7.744;2023-05-10T10:20:30;7.78;;;4.13;;
78555;SDS011;67851;51.354;7.744;2023-05-10T10:22:57;6.55;;;3.67;;
78555;SDS011;67851;51.354;7.744;2023-05-10T10:25:22;9.63;;;3.53;;
78555;SDS011;67851;51.354;7.744;2023-05-10T10:31:24;5.88;;;3.67;;
78555;SDS011;67851;51.354;7.744;2023-05-10T10:34:00;7.13;;;4.10;;
78555;SDS011;67851;51.354;7.744;2023-05-10T10:36:30;6.57;;;4.20;;
78555;SDS011;67851;51.354;7.744;2023-05-10T10:39:48;8.35;;;4.50;;
78555;SDS011;67851;51.354;7.744;2023-05-10T10:42:43;8.95;;;4.78;;
78555;SDS011;67851;51.354;7.744;2023-05-10T10:49:11;5.75;;;2.70;;
78555;SDS011;67851;51.354;7.744;2023-05-10T10:52:12;7.43;;;3.70;;
78555;SDS011;67851;51.354;7.744;2023-05-10T10:54:52;4.80;;;3.08;;
78555;SDS011;67851;51.354;7.744;2023-05-10T10:57:26;7.95;;;3.88;;
78555;SDS011;67851;51.354;7.744;2023-05-10T11:02:47;6.20;;;4.00;;
78555;SDS011;67851;51.354;7.744;2023-05-10T11:11:57;9.95;;;3.95;;
78555;SDS011;67851;51.354;7.744;2023-05-10T11:14:25;8.55;;;3.90;;
78555;SDS011;67851;51.354;7.744;2023-05-10T11:16:50;9.05;;;3.20;;
78555;SDS011;67851;51.354;7.744;2023-05-10T11:19:17;8.35;;;3.75;;
78555;SDS011;67851;51.354;7.744;2023-05-10T11:21:50;5.80;;;3.42;;
78555;SDS011;67851;51.354;7.744;2023-05-10T11:24:21;9.40;;;4.57;;
78555;SDS011;67851;51.354;7.744;2023-05-10T11:26:49;5.57;;;3.95;;
78555;SDS011;67851;51.354;7.744;2023-05-10T11:29:20;10.82;;;4.10;;
78555;SDS011;67851;51.354;7.744;2023-05-10T11:31:46;7.05;;;5.10;;
78555;SDS011;67851;51.354;7.744;2023-05-10T11:34:33;14.48;;;5.32;;
78555;SDS011;67851;51.354;7.744;2023-05-10T11:36:59;12.75;;;5.82;;
78555;SDS011;67851;51.354;7.744;2023-05-10T11:39:27;9.80;;;5.90;;
78555;SDS011;67851;51.354;7.744;2023-05-10T11:41:56;14.65;;;7.00;;
78555;SDS011;67851;51.354;7.744;2023-05-10T11:44:21;12.75;;;7.55;;
78555;SDS011;67851;51.354;7.744;2023-05-10T11:46:47;12.05;;;6.95;;
78555;SDS011;67851;51.354;7.744;2023-05-10T11:49:14;18.77;;;8.75;;
78555;SDS011;67851;51.354;7.744;2023-05-10T11:51:40;27.38;;;13.45;;
78555;SDS011;67851;51.354;7.744;2023-05-10T11:54:07;25.35;;;13.68;;
78555;SDS011;67851;51.354;7.744;2023-05-10T11:56:39;25.50;;;13.50;;
78555;SDS011;67851;51.354;7.744;2023-05-10T11:59:05;39.88;;;18.10;;
78555;SDS011;67851;51.354;7.744;2023-05-10T12:01:31;37.17;;;17.75;;
78555;SDS011;67851;51.354;7.744;2023-05-10T12:03:57;47.90;;;19.77;;
78555;SDS011;67851;51.354;7.744;2023-05-10T12:06:26;54.92;;;22.58;;
78555;SDS011;67851;51.354;7.744;2023-05-10T12:08:54;44.17;;;20.75;;
78555;SDS011;67851;51.354;7.744;2023-05-10T12:11:24;42.95;;;20.52;;
78555;SDS011;67851;51.354;7.744;2023-05-10T12:13:52;39.05;;;17.85;;
78555;SDS011;67851;51.354;7.744;2023-05-10T12:16:22;47.20;;;21.58;;
78555;SDS011;67851;51.354;7.744;2023-05-10T12:18:58;35.33;;;18.90;;
78555;SDS011;67851;51.354;7.744;2023-05-10T12:21:25;32.65;;;17.65;;
78555;SDS011;67851;51.354;7.744;2023-05-10T12:23:53;36.58;;;19.23;;
78555;SDS011;67851;51.354;7.744;2023-05-10T12:26:24;38.92;;;19.25;;
78555;SDS011;67851;51.354;7.744;2023-05-10T12:28:52;34.90;;;17.40;;
78555;SDS011;67851;51.354;7.744;2023-05-10T12:31:20;30.13;;;16.52;;
78555;SDS011;67851;51.354;7.744;2023-05-10T12:33:46;31.73;;;17.48;;
78555;SDS011;67851;51.354;7.744;2023-05-10T12:36:14;28.83;;;16.30;;
78555;SDS011;67851;51.354;7.744;2023-05-10T12:38:44;25.13;;;14.27;;
78555;SDS011;67851;51.354;7.744;2023-05-10T12:41:14;26.27;;;14.95;;
78555;SDS011;67851;51.354;7.744;2023-05-10T12:43:43;28.02;;;15.52;;
78555;SDS011;67851;51.354;7.744;2023-05-10T12:46:13;21.50;;;14.18;;
78555;SDS011;67851;51.354;7.744;2023-05-10T12:48:40;25.15;;;13.93;;
78555;SDS011;67851;51.354;7.744;2023-05-10T12:51:08;22.83;;;14.20;;
78555;SDS011;67851;51.354;7.744;2023-05-10T12:53:38;18.27;;;11.55;;
78555;SDS011;67851;51.354;7.744;2023-05-10T12:56:04;17.80;;;10.80;;
78555;SDS011;67851;51.354;7.744;2023-05-10T12:58:31;16.42;;;10.48;;
78555;SDS011;67851;51.354;7.744;2023-05-10T13:00:57;20.35;;;11.57;;
78555;SDS011;67851;51.354;7.744;2023-05-10T13:03:24;19.38;;;10.95;;
78555;SDS011;67851;51.354;7.744;2023-05-10T13:05:50;15.93;;;9.40;;
78555;SDS011;67851;51.354;7.744;2023-05-10T13:08:15;16.33;;;10.18;;
78555;SDS011;67851;51.354;7.744;2023-05-10T13:10:41;16.35;;;10.23;;
78555;SDS011;67851;51.354;7.744;2023-05-10T13:13:08;17.63;;;10.00;;
78555;SDS011;67851;51.354;7.744;2023-05-10T13:15:34;15.02;;;9.82;;
78555;SDS011;67851;51.354;7.744;2023-05-10T13:25:38;12.68;;;8.13;;
78555;SDS011;67851;51.354;7.744;2023-05-10T13:28:04;12.88;;;7.90;;
78555;SDS011;67851;51.354;7.744;2023-05-10T13:30:29;14.02;;;8.38;;
78555;SDS011;67851;51.354;7.744;2023-05-10T13:32:55;11.30;;;7.10;;
78555;SDS011;67851;51.354;7.744;2023-05-10T13:35:20;9.27;;;6.53;;
78555;SDS011;67851;51.354;7.744;2023-05-10T13:37:46;13.77;;;6.57;;
78555;SDS011;67851;51.354;7.744;2023-05-10T13:40:14;10.77;;;6.22;;
78555;SDS011;67851;51.354;7.744;2023-05-10T13:42:40;11.32;;;6.53;;
78555;SDS011;67851;51.354;7.744;2023-05-10T13:45:07;12.18;;;6.93;;
78555;SDS011;67851;51.354;7.744;2023-05-10T13:47:36;15.63;;;8.57;;
78555;SDS011;67851;51.354;7.744;2023-05-10T13:50:01;12.80;;;8.00;;
78555;SDS011;67851;51.354;7.744;2023-05-10T13:52:27;15.10;;;8.45;;
78555;SDS011;67851;51.354;7.744;2023-05-10T13:54:53;13.80;;;8.02;;
78555;SDS011;67851;51.354;7.744;2023-05-10T13:57:20;13.15;;;8.65;;
78555;SDS011;67851;51.354;7.744;2023-05-10T13:59:46;13.57;;;7.53;;
78555;SDS011;67851;51.354;7.744;2023-05-10T14:02:13;12.90;;;8.73;;
78555;SDS011;67851;51.354;7.744;2023-05-10T14:04:38;15.10;;;8.75;;
78555;SDS011;67851;51.354;7.744;2023-05-10T14:07:04;15.73;;;7.93;;
78555;SDS011;67851;51.354;7.744;2023-05-10T14:09:30;11.45;;;7.80;;
78555;SDS011;67851;51.354;7.744;2023-05-10T14:11:55;12.55;;;7.93;;
78555;SDS011;67851;51.354;7.744;2023-05-10T14:14:24;11.77;;;7.60;;
78555;SDS011;67851;51.354;7.744;2023-05-10T14:16:50;14.77;;;8.10;;
78555;SDS011;67851;51.354;7.744;2023-05-10T14:19:15;17.75;;;8.75;;
78555;SDS011;67851;51.354;7.744;2023-05-10T14:21:41;15.02;;;8.70;;
78555;SDS011;67851;51.354;7.744;2023-05-10T14:24:06;14.20;;;8.90;;
78555;SDS011;67851;51.354;7.744;2023-05-10T14:26:34;12.65;;;7.97;;
78555;SDS011;67851;51.354;7.744;2023-05-10T14:29:00;16.85;;;10.00;;
78555;SDS011;67851;51.354;7.744;2023-05-10T14:31:25;20.00;;;9.20;;
78555;SDS011;67851;51.354;7.744;2023-05-10T14:33:52;13.10;;;9.05;;
78555;SDS011;67851;51.354;7.744;2023-05-10T14:36:18;14.73;;;9.23;;
78555;SDS011;67851;51.354;7.744;2023-05-10T14:38:45;15.00;;;9.30;;
78555;SDS011;67851;51.354;7.744;2023-05-10T14:41:11;16.90;;;9.38;;
78555;SDS011;67851;51.354;7.744;2023-05-10T14:43:39;13.65;;;9.45;;
78555;SDS011;67851;51.354;7.744;2023-05-10T14:46:06;17.08;;;9.60;;
78555;SDS011;67851;51.354;7.744;2023-05-10T14:48:32;14.40;;;9.25;;
78555;SDS011;67851;51.354;7.744;2023-05-10T14:50:58;15.13;;;9.50;;
78555;SDS011;67851;51.354;7.744;2023-05-10T14:53:26;14.93;;;8.57;;
78555;SDS011;67851;51.354;7.744;2023-05-10T14:55:53;18.30;;;10.20;;
78555;SDS011;67851;51.354;7.744;2023-05-10T14:58:20;13.45;;;8.88;;
78555;SDS011;67851;51.354;7.744;2023-05-10T15:00:46;18.80;;;9.35;;
78555;SDS011;67851;51.354;7.744;2023-05-10T15:03:12;13.50;;;8.98;;
78555;SDS011;67851;51.354;7.744;2023-05-10T15:05:37;14.48;;;9.77;;
78555;SDS011;67851;51.354;7.744;2023-05-10T15:08:03;11.70;;;8.05;;
78555;SDS011;67851;51.354;7.744;2023-05-10T15:10:30;11.52;;;7.47;;
78555;SDS011;67851;51.354;7.744;2023-05-10T15:12:57;15.68;;;7.68;;
78555;SDS011;67851;51.354;7.744;2023-05-10T15:15:24;13.35;;;9.50;;
78555;SDS011;67851;51.354;7.744;2023-05-10T15:17:49;18.15;;;9.88;;
78555;SDS011;67851;51.354;7.744;2023-05-10T15:20:16;14.82;;;8.82;;
78555;SDS011;67851;51.354;7.744;2023-05-10T15:22:42;13.20;;;8.75;;
78555;SDS011;67851;51.354;7.744;2023-05-10T15:25:07;12.55;;;8.98;;